Richmond North's Hourly Summary for Friday, May 11, 2018
Hour Temp
(f)
RH
(%)
Solar Rad.
(MJ/m2)
Rainfall
(in)
Wind
(mph)
5/11/2018 12:00 AM 68 94 0 0 0.01
5/11/2018 1:00 AM 66 96 0 0 0.03
5/11/2018 2:00 AM 65 98 0 0 0
5/11/2018 3:00 AM 65 98 0 0 0
5/11/2018 4:00 AM 67 98 0 0 0.01
5/11/2018 5:00 AM 66 99 0 0 0
5/11/2018 6:00 AM 66 99 0.04 0 0
5/11/2018 7:00 AM 70 95 0.48 0 0.75
5/11/2018 8:00 AM 75 77 0.56 0 3.36
5/11/2018 9:00 AM 79 63 1.69 0 5.29
5/11/2018 10:00 AM 81 57 2.4 0 5.48
5/11/2018 11:00 AM 84 47 3.01 0 5.6
5/11/2018 12:00 PM 85 46 3.04 0 5.92
5/11/2018 1:00 PM 85 43 2.71 0 5.12
5/11/2018 2:00 PM 86 44 2.71 0 6.16
5/11/2018 3:00 PM 86 44 2.61 0 6.14
5/11/2018 4:00 PM 85 47 1.93 0 5.32
5/11/2018 5:00 PM 85 46 1.88 0 5.74
5/11/2018 6:00 PM 83 50 1.05 0 5.71
5/11/2018 7:00 PM 80 57 0.23 0 4.8
5/11/2018 8:00 PM 77 67 0 0 4.11
5/11/2018 9:00 PM 76 78 0 0 4.6
5/11/2018 10:00 PM 75 85 0 0 4.09
5/11/2018 11:00 PM 74 89 0 0 3.14
Data Summary 76 71 24.34 0.00 3.39